NCAR-RAP Real-Time Weather Data

Output produced by METARs form (20 February 2019  17:32 UTC)
found at http://weather.rap.ucar.edu/surface/
 
 
RJCC 201700Z 15007KT 3000 -SHSN BR FEW003 SCT015 BKN025 00/M01 Q1014 RMK 1ST003 4ST015 7CU025 A2996
 
 
 
 
 
 
RJSA 201208Z 18003KT 140V220 6000 R24/1800U FEW003 SCT020 BKN050 01/01 Q1010 RMK 1ST003 3CU020 6CU050 A2985
 
 
 
 
RJSK 201200Z 24007KT 200V270 9999 FEW015 SCT025 BKN030 04/01 Q1013
 
RJSM 201700Z VRB02KT 6000 PRFG FEW001 00/00 Q1012
 
RJSN 201200Z 27013KT 9999 -SHRA FEW020 BKN040 BKN070 07/05 Q1016
 
 
RJSS 201200Z 10007KT 9999 FEW008 BKN015 06/03 Q1013
 
RJSY 201200Z 26016KT 9999 -SHRA FEW010 SCT015 BKN025 06/03 Q1014